sensor_id;sensor_type;location;lat;lon;timestamp;P1;durP1;ratioP1;P2;durP2;ratioP2
69213;SDS011;56325;47.030;18.518;2022-07-23T00:00:33;11.35;;;2.72;;
69213;SDS011;56325;47.030;18.518;2022-07-23T00:03:40;8.45;;;3.47;;
69213;SDS011;56325;47.030;18.518;2022-07-23T00:06:43;10.32;;;4.05;;
69213;SDS011;56325;47.030;18.518;2022-07-23T00:09:46;11.30;;;3.25;;
69213;SDS011;56325;47.030;18.518;2022-07-23T00:12:49;7.97;;;3.05;;
69213;SDS011;56325;47.030;18.518;2022-07-23T00:15:54;9.63;;;2.97;;
69213;SDS011;56325;47.030;18.518;2022-07-23T00:18:57;7.18;;;3.37;;
69213;SDS011;56325;47.030;18.518;2022-07-23T00:22:04;3.92;;;3.30;;
69213;SDS011;56325;47.030;18.518;2022-07-23T00:25:07;13.77;;;3.30;;
69213;SDS011;56325;47.030;18.518;2022-07-23T00:28:31;9.35;;;3.75;;
69213;SDS011;56325;47.030;18.518;2022-07-23T00:31:33;11.10;;;4.37;;
69213;SDS011;56325;47.030;18.518;2022-07-23T00:34:36;5.97;;;3.10;;
69213;SDS011;56325;47.030;18.518;2022-07-23T00:37:39;5.32;;;3.97;;
69213;SDS011;56325;47.030;18.518;2022-07-23T00:40:43;5.78;;;3.25;;
69213;SDS011;56325;47.030;18.518;2022-07-23T00:43:46;10.10;;;3.67;;
69213;SDS011;56325;47.030;18.518;2022-07-23T00:46:53;7.37;;;3.62;;
69213;SDS011;56325;47.030;18.518;2022-07-23T00:49:58;8.55;;;3.30;;
69213;SDS011;56325;47.030;18.518;2022-07-23T00:53:01;12.65;;;3.75;;
69213;SDS011;56325;47.030;18.518;2022-07-23T00:56:04;17.48;;;3.90;;
69213;SDS011;56325;47.030;18.518;2022-07-23T00:59:08;10.32;;;4.00;;
69213;SDS011;56325;47.030;18.518;2022-07-23T01:02:12;16.05;;;4.03;;
69213;SDS011;56325;47.030;18.518;2022-07-23T01:05:15;6.30;;;3.58;;
69213;SDS011;56325;47.030;18.518;2022-07-23T01:08:20;11.55;;;4.45;;
69213;SDS011;56325;47.030;18.518;2022-07-23T01:11:24;7.85;;;3.80;;
69213;SDS011;56325;47.030;18.518;2022-07-23T01:14:27;6.15;;;3.83;;
69213;SDS011;56325;47.030;18.518;2022-07-23T01:17:30;9.25;;;4.28;;
69213;SDS011;56325;47.030;18.518;2022-07-23T01:20:34;8.48;;;3.62;;
69213;SDS011;56325;47.030;18.518;2022-07-23T01:23:41;6.65;;;3.70;;
69213;SDS011;56325;47.030;18.518;2022-07-23T01:26:45;13.02;;;3.95;;
69213;SDS011;56325;47.030;18.518;2022-07-23T01:29:49;14.00;;;4.35;;
69213;SDS011;56325;47.030;18.518;2022-07-23T01:32:52;12.25;;;4.20;;
69213;SDS011;56325;47.030;18.518;2022-07-23T01:35:56;13.23;;;3.53;;
69213;SDS011;56325;47.030;18.518;2022-07-23T01:39:00;11.63;;;3.65;;
69213;SDS011;56325;47.030;18.518;2022-07-23T01:42:04;6.35;;;3.65;;
69213;SDS011;56325;47.030;18.518;2022-07-23T01:45:09;25.55;;;4.22;;
69213;SDS011;56325;47.030;18.518;2022-07-23T01:48:13;9.77;;;4.00;;
69213;SDS011;56325;47.030;18.518;2022-07-23T01:51:18;11.20;;;4.07;;
69213;SDS011;56325;47.030;18.518;2022-07-23T01:54:22;13.38;;;3.72;;
69213;SDS011;56325;47.030;18.518;2022-07-23T01:57:25;5.12;;;3.70;;
69213;SDS011;56325;47.030;18.518;2022-07-23T02:00:29;6.05;;;3.60;;
69213;SDS011;56325;47.030;18.518;2022-07-23T02:03:32;6.40;;;3.22;;
69213;SDS011;56325;47.030;18.518;2022-07-23T02:06:35;11.10;;;3.83;;
69213;SDS011;56325;47.030;18.518;2022-07-23T02:09:45;7.57;;;3.50;;
69213;SDS011;56325;47.030;18.518;2022-07-23T02:12:48;8.32;;;3.65;;
69213;SDS011;56325;47.030;18.518;2022-07-23T02:15:51;7.32;;;3.62;;
69213;SDS011;56325;47.030;18.518;2022-07-23T02:18:54;13.30;;;3.55;;
69213;SDS011;56325;47.030;18.518;2022-07-23T02:21:57;11.68;;;3.85;;
69213;SDS011;56325;47.030;18.518;2022-07-23T02:25:00;17.12;;;4.03;;
69213;SDS011;56325;47.030;18.518;2022-07-23T02:28:04;23.25;;;4.12;;
69213;SDS011;56325;47.030;18.518;2022-07-23T02:31:07;19.45;;;3.55;;
69213;SDS011;56325;47.030;18.518;2022-07-23T02:34:10;7.25;;;3.53;;
69213;SDS011;56325;47.030;18.518;2022-07-23T02:37:14;6.70;;;3.60;;
69213;SDS011;56325;47.030;18.518;2022-07-23T02:40:17;5.25;;;3.95;;
69213;SDS011;56325;47.030;18.518;2022-07-23T02:43:26;9.07;;;4.12;;
69213;SDS011;56325;47.030;18.518;2022-07-23T02:46:30;3.72;;;3.40;;
69213;SDS011;56325;47.030;18.518;2022-07-23T02:49:33;6.47;;;3.60;;
69213;SDS011;56325;47.030;18.518;2022-07-23T02:59:10;8.77;;;4.00;;
69213;SDS011;56325;47.030;18.518;2022-07-23T03:02:13;9.88;;;4.10;;
69213;SDS011;56325;47.030;18.518;2022-07-23T03:05:16;10.68;;;4.37;;
69213;SDS011;56325;47.030;18.518;2022-07-23T03:08:19;27.75;;;5.28;;
69213;SDS011;56325;47.030;18.518;2022-07-23T03:22:19;21.90;;;5.10;;
69213;SDS011;56325;47.030;18.518;2022-07-23T03:25:23;17.87;;;4.80;;
69213;SDS011;56325;47.030;18.518;2022-07-23T03:28:26;21.25;;;5.00;;
69213;SDS011;56325;47.030;18.518;2022-07-23T03:31:30;8.25;;;4.97;;
69213;SDS011;56325;47.030;18.518;2022-07-23T03:34:33;11.05;;;5.00;;
69213;SDS011;56325;47.030;18.518;2022-07-23T03:37:38;14.65;;;4.97;;
69213;SDS011;56325;47.030;18.518;2022-07-23T03:40:41;18.92;;;5.32;;
69213;SDS011;56325;47.030;18.518;2022-07-23T03:43:44;18.08;;;5.12;;
69213;SDS011;56325;47.030;18.518;2022-07-23T03:46:47;19.95;;;5.72;;
69213;SDS011;56325;47.030;18.518;2022-07-23T03:50:02;21.67;;;5.82;;
69213;SDS011;56325;47.030;18.518;2022-07-23T03:53:33;15.52;;;6.03;;
69213;SDS011;56325;47.030;18.518;2022-07-23T03:56:36;16.20;;;6.15;;
69213;SDS011;56325;47.030;18.518;2022-07-23T03:59:40;19.83;;;5.57;;
69213;SDS011;56325;47.030;18.518;2022-07-23T04:02:49;11.98;;;5.05;;
69213;SDS011;56325;47.030;18.518;2022-07-23T04:34:48;19.17;;;4.55;;
69213;SDS011;56325;47.030;18.518;2022-07-23T04:37:53;17.75;;;4.68;;
69213;SDS011;56325;47.030;18.518;2022-07-23T04:40:56;22.00;;;4.75;;
69213;SDS011;56325;47.030;18.518;2022-07-23T04:44:01;17.73;;;5.05;;
69213;SDS011;56325;47.030;18.518;2022-07-23T04:50:58;28.55;;;5.45;;
69213;SDS011;56325;47.030;18.518;2022-07-23T04:54:01;27.60;;;5.65;;
69213;SDS011;56325;47.030;18.518;2022-07-23T04:57:04;20.75;;;5.18;;
69213;SDS011;56325;47.030;18.518;2022-07-23T05:04:03;19.45;;;5.72;;
69213;SDS011;56325;47.030;18.518;2022-07-23T05:07:07;25.15;;;5.45;;
69213;SDS011;56325;47.030;18.518;2022-07-23T05:10:10;16.25;;;5.55;;
69213;SDS011;56325;47.030;18.518;2022-07-23T05:13:14;14.30;;;4.70;;
69213;SDS011;56325;47.030;18.518;2022-07-23T05:16:18;11.98;;;5.10;;
69213;SDS011;56325;47.030;18.518;2022-07-23T05:19:22;13.30;;;4.85;;
69213;SDS011;56325;47.030;18.518;2022-07-23T05:22:54;8.60;;;4.65;;
69213;SDS011;56325;47.030;18.518;2022-07-23T05:25:58;6.82;;;4.43;;
69213;SDS011;56325;47.030;18.518;2022-07-23T05:29:01;32.28;;;6.72;;
69213;SDS011;56325;47.030;18.518;2022-07-23T05:32:04;46.53;;;7.53;;
69213;SDS011;56325;47.030;18.518;2022-07-23T05:38:34;28.73;;;5.62;;
69213;SDS011;56325;47.030;18.518;2022-07-23T05:41:38;13.75;;;4.70;;
69213;SDS011;56325;47.030;18.518;2022-07-23T05:44:41;16.12;;;5.85;;
69213;SDS011;56325;47.030;18.518;2022-07-23T05:47:47;12.82;;;4.65;;
69213;SDS011;56325;47.030;18.518;2022-07-23T05:50:52;17.73;;;4.85;;
69213;SDS011;56325;47.030;18.518;2022-07-23T05:53:59;10.68;;;5.20;;
69213;SDS011;56325;47.030;18.518;2022-07-23T05:57:02;7.32;;;4.18;;
69213;SDS011;56325;47.030;18.518;2022-07-23T06:00:07;13.50;;;4.65;;
69213;SDS011;56325;47.030;18.518;2022-07-23T06:11:10;15.32;;;4.78;;
69213;SDS011;56325;47.030;18.518;2022-07-23T06:14:15;12.27;;;4.87;;
69213;SDS011;56325;47.030;18.518;2022-07-23T06:17:19;10.27;;;4.20;;
69213;SDS011;56325;47.030;18.518;2022-07-23T06:20:23;15.50;;;4.45;;
69213;SDS011;56325;47.030;18.518;2022-07-23T06:35:44;17.48;;;4.32;;
69213;SDS011;56325;47.030;18.518;2022-07-23T06:45:32;4.70;;;4.25;;
69213;SDS011;56325;47.030;18.518;2022-07-23T06:48:35;11.45;;;4.35;;
69213;SDS011;56325;47.030;18.518;2022-07-23T06:51:45;8.05;;;3.83;;
69213;SDS011;56325;47.030;18.518;2022-07-23T06:54:49;8.18;;;4.07;;
69213;SDS011;56325;47.030;18.518;2022-07-23T06:58:00;13.65;;;4.03;;
69213;SDS011;56325;47.030;18.518;2022-07-23T07:01:03;4.05;;;3.62;;
69213;SDS011;56325;47.030;18.518;2022-07-23T10:08:48;4.15;;;3.00;;
69213;SDS011;56325;47.030;18.518;2022-07-23T10:11:59;4.18;;;3.72;;
69213;SDS011;56325;47.030;18.518;2022-07-23T10:18:52;4.43;;;2.53;;
69213;SDS011;56325;47.030;18.518;2022-07-23T10:22:04;10.75;;;3.10;;
69213;SDS011;56325;47.030;18.518;2022-07-23T10:31:58;4.35;;;2.80;;
69213;SDS011;56325;47.030;18.518;2022-07-23T10:35:09;10.80;;;2.72;;
69213;SDS011;56325;47.030;18.518;2022-07-23T10:41:50;4.85;;;2.85;;
69213;SDS011;56325;47.030;18.518;2022-07-23T10:44:53;3.35;;;2.70;;
69213;SDS011;56325;47.030;18.518;2022-07-23T10:47:56;3.87;;;2.60;;
69213;SDS011;56325;47.030;18.518;2022-07-23T10:51:25;8.82;;;2.40;;
69213;SDS011;56325;47.030;18.518;2022-07-23T10:54:30;2.47;;;2.28;;
69213;SDS011;56325;47.030;18.518;2022-07-23T10:57:46;2.55;;;2.42;;
69213;SDS011;56325;47.030;18.518;2022-07-23T11:00:51;7.00;;;2.60;;
69213;SDS011;56325;47.030;18.518;2022-07-23T11:03:56;6.32;;;3.00;;
69213;SDS011;56325;47.030;18.518;2022-07-23T11:10:03;3.05;;;2.40;;
69213;SDS011;56325;47.030;18.518;2022-07-23T11:16:25;4.47;;;2.40;;
69213;SDS011;56325;47.030;18.518;2022-07-23T11:19:29;4.55;;;2.67;;
69213;SDS011;56325;47.030;18.518;2022-07-23T11:25:49;5.43;;;2.67;;
69213;SDS011;56325;47.030;18.518;2022-07-23T11:28:54;4.60;;;2.62;;
69213;SDS011;56325;47.030;18.518;2022-07-23T11:35:21;5.40;;;2.75;;
69213;SDS011;56325;47.030;18.518;2022-07-23T11:38:30;3.03;;;2.60;;
69213;SDS011;56325;47.030;18.518;2022-07-23T11:41:43;4.80;;;2.60;;
69213;SDS011;56325;47.030;18.518;2022-07-23T11:44:50;6.80;;;2.72;;
69213;SDS011;56325;47.030;18.518;2022-07-23T11:47:53;2.67;;;2.50;;
69213;SDS011;56325;47.030;18.518;2022-07-23T11:50:56;4.00;;;3.15;;
69213;SDS011;56325;47.030;18.518;2022-07-23T11:54:05;5.00;;;3.00;;
69213;SDS011;56325;47.030;18.518;2022-07-23T11:57:10;4.77;;;2.83;;
69213;SDS011;56325;47.030;18.518;2022-07-23T12:00:25;9.82;;;3.00;;
69213;SDS011;56325;47.030;18.518;2022-07-23T12:03:31;7.05;;;3.10;;
69213;SDS011;56325;47.030;18.518;2022-07-23T12:06:38;3.37;;;3.17;;
69213;SDS011;56325;47.030;18.518;2022-07-23T12:09:43;3.15;;;2.85;;
69213;SDS011;56325;47.030;18.518;2022-07-23T12:12:51;6.80;;;2.92;;
69213;SDS011;56325;47.030;18.518;2022-07-23T12:15:57;5.28;;;2.87;;
69213;SDS011;56325;47.030;18.518;2022-07-23T12:19:01;4.32;;;2.92;;
69213;SDS011;56325;47.030;18.518;2022-07-23T12:22:04;2.90;;;2.75;;
69213;SDS011;56325;47.030;18.518;2022-07-23T12:29:06;3.12;;;2.83;;
69213;SDS011;56325;47.030;18.518;2022-07-23T12:32:31;4.35;;;3.95;;
69213;SDS011;56325;47.030;18.518;2022-07-23T12:35:55;7.03;;;3.58;;
69213;SDS011;56325;47.030;18.518;2022-07-23T12:39:02;9.15;;;4.32;;
69213;SDS011;56325;47.030;18.518;2022-07-23T12:42:11;5.78;;;4.10;;
69213;SDS011;56325;47.030;18.518;2022-07-23T12:49:11;6.15;;;3.92;;
69213;SDS011;56325;47.030;18.518;2022-07-23T12:52:32;4.87;;;3.00;;
69213;SDS011;56325;47.030;18.518;2022-07-23T13:00:09;5.35;;;4.07;;
69213;SDS011;56325;47.030;18.518;2022-07-23T13:03:33;4.45;;;4.15;;
69213;SDS011;56325;47.030;18.518;2022-07-23T13:07:04;11.35;;;4.97;;
69213;SDS011;56325;47.030;18.518;2022-07-23T13:10:09;6.30;;;4.80;;
69213;SDS011;56325;47.030;18.518;2022-07-23T13:13:21;4.97;;;3.45;;
69213;SDS011;56325;47.030;18.518;2022-07-23T13:16:32;9.52;;;6.12;;
69213;SDS011;56325;47.030;18.518;2022-07-23T13:19:35;8.25;;;5.32;;
69213;SDS011;56325;47.030;18.518;2022-07-23T13:22:58;5.62;;;5.22;;
69213;SDS011;56325;47.030;18.518;2022-07-23T13:26:03;9.30;;;5.72;;
69213;SDS011;56325;47.030;18.518;2022-07-23T13:29:06;5.97;;;5.68;;
69213;SDS011;56325;47.030;18.518;2022-07-23T13:32:31;6.10;;;5.60;;
69213;SDS011;56325;47.030;18.518;2022-07-23T13:35:36;8.23;;;7.53;;
69213;SDS011;56325;47.030;18.518;2022-07-23T13:38:40;9.10;;;8.18;;
69213;SDS011;56325;47.030;18.518;2022-07-23T13:41:46;10.00;;;8.10;;
69213;SDS011;56325;47.030;18.518;2022-07-23T13:45:12;9.32;;;8.50;;
69213;SDS011;56325;47.030;18.518;2022-07-23T13:48:35;6.97;;;6.37;;
69213;SDS011;56325;47.030;18.518;2022-07-23T13:51:38;7.87;;;7.18;;
69213;SDS011;56325;47.030;18.518;2022-07-23T13:54:42;7.60;;;7.00;;
69213;SDS011;56325;47.030;18.518;2022-07-23T13:57:45;7.30;;;6.40;;
69213;SDS011;56325;47.030;18.518;2022-07-23T14:00:49;6.12;;;5.70;;
69213;SDS011;56325;47.030;18.518;2022-07-23T14:03:55;8.07;;;6.37;;
69213;SDS011;56325;47.030;18.518;2022-07-23T14:06:59;6.82;;;6.40;;
69213;SDS011;56325;47.030;18.518;2022-07-23T14:10:04;7.20;;;6.80;;
69213;SDS011;56325;47.030;18.518;2022-07-23T14:13:09;6.32;;;5.90;;
69213;SDS011;56325;47.030;18.518;2022-07-23T14:16:16;6.28;;;5.40;;
69213;SDS011;56325;47.030;18.518;2022-07-23T14:19:19;10.23;;;5.15;;
69213;SDS011;56325;47.030;18.518;2022-07-23T14:22:22;5.30;;;4.75;;
69213;SDS011;56325;47.030;18.518;2022-07-23T14:25:25;5.55;;;5.15;;
69213;SDS011;56325;47.030;18.518;2022-07-23T14:28:34;9.70;;;5.40;;
69213;SDS011;56325;47.030;18.518;2022-07-23T14:31:37;6.35;;;5.65;;
69213;SDS011;56325;47.030;18.518;2022-07-23T14:34:40;7.25;;;6.25;;
69213;SDS011;56325;47.030;18.518;2022-07-23T14:37:44;10.50;;;5.60;;
69213;SDS011;56325;47.030;18.518;2022-07-23T14:40:48;6.68;;;5.70;;
69213;SDS011;56325;47.030;18.518;2022-07-23T14:43:51;8.85;;;6.00;;
69213;SDS011;56325;47.030;18.518;2022-07-23T14:46:54;6.60;;;6.00;;
69213;SDS011;56325;47.030;18.518;2022-07-23T14:49:57;9.05;;;6.68;;
69213;SDS011;56325;47.030;18.518;2022-07-23T14:53:01;6.78;;;6.32;;
69213;SDS011;56325;47.030;18.518;2022-07-23T14:56:04;12.48;;;6.55;;
69213;SDS011;56325;47.030;18.518;2022-07-23T14:59:08;6.57;;;6.07;;
69213;SDS011;56325;47.030;18.518;2022-07-23T15:02:11;5.75;;;5.35;;
69213;SDS011;56325;47.030;18.518;2022-07-23T15:05:15;10.63;;;5.70;;
69213;SDS011;56325;47.030;18.518;2022-07-23T15:08:19;5.82;;;5.05;;
69213;SDS011;56325;47.030;18.518;2022-07-23T15:11:26;5.05;;;4.60;;
69213;SDS011;56325;47.030;18.518;2022-07-23T15:14:32;7.70;;;4.85;;
69213;SDS011;56325;47.030;18.518;2022-07-23T15:17:37;5.82;;;4.10;;
69213;SDS011;56325;47.030;18.518;2022-07-23T15:20:40;4.00;;;3.70;;
69213;SDS011;56325;47.030;18.518;2022-07-23T15:23:43;4.05;;;3.62;;
69213;SDS011;56325;47.030;18.518;2022-07-23T15:26:46;3.60;;;3.40;;
69213;SDS011;56325;47.030;18.518;2022-07-23T15:30:09;3.65;;;3.45;;
69213;SDS011;56325;47.030;18.518;2022-07-23T15:33:13;11.15;;;3.90;;
69213;SDS011;56325;47.030;18.518;2022-07-23T15:36:23;5.00;;;4.68;;
69213;SDS011;56325;47.030;18.518;2022-07-23T15:39:26;5.50;;;5.00;;
69213;SDS011;56325;47.030;18.518;2022-07-23T15:42:31;6.55;;;5.30;;
69213;SDS011;56325;47.030;18.518;2022-07-23T15:45:33;5.53;;;5.07;;
69213;SDS011;56325;47.030;18.518;2022-07-23T15:48:37;132.80;;;9.18;;
69213;SDS011;56325;47.030;18.518;2022-07-23T15:51:40;65.20;;;6.43;;
69213;SDS011;56325;47.030;18.518;2022-07-23T15:54:45;55.92;;;5.15;;
69213;SDS011;56325;47.030;18.518;2022-07-23T15:57:49;35.67;;;4.62;;
69213;SDS011;56325;47.030;18.518;2022-07-23T16:00:55;24.15;;;4.87;;
69213;SDS011;56325;47.030;18.518;2022-07-23T16:04:00;22.67;;;5.07;;
69213;SDS011;56325;47.030;18.518;2022-07-23T16:07:03;29.73;;;5.40;;
69213;SDS011;56325;47.030;18.518;2022-07-23T16:10:08;19.05;;;5.05;;
69213;SDS011;56325;47.030;18.518;2022-07-23T16:13:12;30.10;;;6.03;;
69213;SDS011;56325;47.030;18.518;2022-07-23T16:16:16;26.30;;;5.40;;
69213;SDS011;56325;47.030;18.518;2022-07-23T16:19:20;22.40;;;5.25;;
69213;SDS011;56325;47.030;18.518;2022-07-23T16:22:23;12.55;;;4.97;;
69213;SDS011;56325;47.030;18.518;2022-07-23T16:25:46;12.95;;;5.32;;
69213;SDS011;56325;47.030;18.518;2022-07-23T16:29:29;15.43;;;5.10;;
69213;SDS011;56325;47.030;18.518;2022-07-23T16:33:01;8.02;;;5.60;;
69213;SDS011;56325;47.030;18.518;2022-07-23T16:36:29;17.25;;;5.90;;
69213;SDS011;56325;47.030;18.518;2022-07-23T16:39:32;8.18;;;4.90;;
69213;SDS011;56325;47.030;18.518;2022-07-23T16:42:39;18.27;;;6.10;;
69213;SDS011;56325;47.030;18.518;2022-07-23T16:45:43;17.85;;;5.40;;
69213;SDS011;56325;47.030;18.518;2022-07-23T16:48:48;21.08;;;5.28;;
69213;SDS011;56325;47.030;18.518;2022-07-23T16:51:51;9.07;;;5.43;;
69213;SDS011;56325;47.030;18.518;2022-07-23T16:54:55;9.98;;;5.28;;
69213;SDS011;56325;47.030;18.518;2022-07-23T16:57:58;18.15;;;6.53;;
69213;SDS011;56325;47.030;18.518;2022-07-23T17:01:01;10.15;;;5.37;;
69213;SDS011;56325;47.030;18.518;2022-07-23T17:04:05;10.45;;;5.90;;
69213;SDS011;56325;47.030;18.518;2022-07-23T17:07:09;10.18;;;5.43;;
69213;SDS011;56325;47.030;18.518;2022-07-23T17:10:12;17.98;;;5.35;;
69213;SDS011;56325;47.030;18.518;2022-07-23T17:13:16;10.90;;;5.03;;
69213;SDS011;56325;47.030;18.518;2022-07-23T17:16:19;6.37;;;5.37;;
69213;SDS011;56325;47.030;18.518;2022-07-23T17:19:23;13.15;;;5.57;;
69213;SDS011;56325;47.030;18.518;2022-07-23T17:22:26;6.97;;;5.62;;
69213;SDS011;56325;47.030;18.518;2022-07-23T17:25:30;24.58;;;6.20;;
69213;SDS011;56325;47.030;18.518;2022-07-23T17:28:33;6.18;;;5.62;;
69213;SDS011;56325;47.030;18.518;2022-07-23T17:31:44;10.48;;;5.78;;
69213;SDS011;56325;47.030;18.518;2022-07-23T17:35:07;6.47;;;5.90;;
69213;SDS011;56325;47.030;18.518;2022-07-23T17:38:29;10.75;;;5.45;;
69213;SDS011;56325;47.030;18.518;2022-07-23T17:41:32;6.97;;;5.78;;
69213;SDS011;56325;47.030;18.518;2022-07-23T17:44:36;8.23;;;5.75;;
69213;SDS011;56325;47.030;18.518;2022-07-23T17:47:39;10.30;;;5.87;;
69213;SDS011;56325;47.030;18.518;2022-07-23T17:50:43;6.18;;;5.60;;
69213;SDS011;56325;47.030;18.518;2022-07-23T17:53:46;7.05;;;5.47;;
69213;SDS011;56325;47.030;18.518;2022-07-23T17:56:49;6.45;;;5.60;;
69213;SDS011;56325;47.030;18.518;2022-07-23T17:59:52;6.43;;;5.85;;
69213;SDS011;56325;47.030;18.518;2022-07-23T18:02:56;5.55;;;5.15;;
69213;SDS011;56325;47.030;18.518;2022-07-23T18:06:07;8.48;;;4.87;;
69213;SDS011;56325;47.030;18.518;2022-07-23T18:09:11;5.87;;;5.37;;
69213;SDS011;56325;47.030;18.518;2022-07-23T18:12:16;11.70;;;5.07;;
69213;SDS011;56325;47.030;18.518;2022-07-23T18:15:19;7.15;;;5.00;;
69213;SDS011;56325;47.030;18.518;2022-07-23T18:18:23;5.28;;;4.97;;
69213;SDS011;56325;47.030;18.518;2022-07-23T18:21:26;4.15;;;4.00;;
69213;SDS011;56325;47.030;18.518;2022-07-23T18:24:30;5.37;;;4.97;;
69213;SDS011;56325;47.030;18.518;2022-07-23T18:27:33;5.28;;;4.70;;
69213;SDS011;56325;47.030;18.518;2022-07-23T18:30:36;5.32;;;5.00;;
69213;SDS011;56325;47.030;18.518;2022-07-23T18:33:39;5.57;;;5.25;;
69213;SDS011;56325;47.030;18.518;2022-07-23T18:36:43;10.57;;;6.43;;
69213;SDS011;56325;47.030;18.518;2022-07-23T18:40:09;6.10;;;5.70;;
69213;SDS011;56325;47.030;18.518;2022-07-23T18:43:12;7.47;;;6.22;;
69213;SDS011;56325;47.030;18.518;2022-07-23T18:46:15;10.48;;;6.43;;
69213;SDS011;56325;47.030;18.518;2022-07-23T18:49:19;7.87;;;7.18;;
69213;SDS011;56325;47.030;18.518;2022-07-23T18:52:22;12.40;;;7.00;;
69213;SDS011;56325;47.030;18.518;2022-07-23T18:55:25;9.25;;;6.87;;
69213;SDS011;56325;47.030;18.518;2022-07-23T18:58:28;9.98;;;7.00;;
69213;SDS011;56325;47.030;18.518;2022-07-23T19:01:32;7.25;;;6.70;;
69213;SDS011;56325;47.030;18.518;2022-07-23T19:04:35;6.90;;;6.50;;
69213;SDS011;56325;47.030;18.518;2022-07-23T19:07:39;6.97;;;6.35;;
69213;SDS011;56325;47.030;18.518;2022-07-23T19:10:42;7.75;;;7.15;;
69213;SDS011;56325;47.030;18.518;2022-07-23T19:13:45;9.43;;;6.97;;
69213;SDS011;56325;47.030;18.518;2022-07-23T19:16:56;8.23;;;7.12;;
69213;SDS011;56325;47.030;18.518;2022-07-23T19:20:00;9.77;;;6.68;;
69213;SDS011;56325;47.030;18.518;2022-07-23T19:23:23;9.02;;;7.68;;
69213;SDS011;56325;47.030;18.518;2022-07-23T19:27:21;9.52;;;6.90;;
69213;SDS011;56325;47.030;18.518;2022-07-23T19:31:14;10.73;;;6.87;;
69213;SDS011;56325;47.030;18.518;2022-07-23T19:34:21;9.00;;;6.60;;
69213;SDS011;56325;47.030;18.518;2022-07-23T19:37:23;8.00;;;6.80;;
69213;SDS011;56325;47.030;18.518;2022-07-23T19:40:27;7.70;;;7.00;;
69213;SDS011;56325;47.030;18.518;2022-07-23T19:43:31;8.45;;;6.90;;
69213;SDS011;56325;47.030;18.518;2022-07-23T19:46:34;7.75;;;7.03;;
69213;SDS011;56325;47.030;18.518;2022-07-23T19:49:37;14.23;;;7.00;;
69213;SDS011;56325;47.030;18.518;2022-07-23T19:52:41;10.95;;;7.03;;
69213;SDS011;56325;47.030;18.518;2022-07-23T19:55:44;13.15;;;6.78;;
69213;SDS011;56325;47.030;18.518;2022-07-23T19:58:48;6.60;;;6.18;;
69213;SDS011;56325;47.030;18.518;2022-07-23T20:01:51;7.53;;;6.72;;
69213;SDS011;56325;47.030;18.518;2022-07-23T20:04:54;10.40;;;6.45;;
69213;SDS011;56325;47.030;18.518;2022-07-23T20:07:57;7.70;;;6.45;;
69213;SDS011;56325;47.030;18.518;2022-07-23T20:11:01;10.18;;;6.43;;
69213;SDS011;56325;47.030;18.518;2022-07-23T20:14:04;7.68;;;6.57;;
69213;SDS011;56325;47.030;18.518;2022-07-23T20:17:13;9.48;;;7.28;;
69213;SDS011;56325;47.030;18.518;2022-07-23T20:20:19;8.07;;;6.95;;
69213;SDS011;56325;47.030;18.518;2022-07-23T20:23:22;7.45;;;6.72;;
69213;SDS011;56325;47.030;18.518;2022-07-23T20:26:27;10.95;;;6.60;;
69213;SDS011;56325;47.030;18.518;2022-07-23T20:29:30;9.50;;;7.00;;
69213;SDS011;56325;47.030;18.518;2022-07-23T20:32:34;7.25;;;6.65;;
69213;SDS011;56325;47.030;18.518;2022-07-23T20:35:37;7.37;;;6.72;;
69213;SDS011;56325;47.030;18.518;2022-07-23T20:38:40;7.72;;;7.12;;
69213;SDS011;56325;47.030;18.518;2022-07-23T20:41:44;9.30;;;7.10;;
69213;SDS011;56325;47.030;18.518;2022-07-23T20:44:47;7.25;;;6.68;;
69213;SDS011;56325;47.030;18.518;2022-07-23T20:47:50;7.22;;;6.60;;
69213;SDS011;56325;47.030;18.518;2022-07-23T20:50:55;7.53;;;6.57;;
69213;SDS011;56325;47.030;18.518;2022-07-23T20:53:59;9.65;;;6.50;;
69213;SDS011;56325;47.030;18.518;2022-07-23T20:57:02;7.68;;;6.97;;
69213;SDS011;56325;47.030;18.518;2022-07-23T21:00:08;9.07;;;7.00;;
69213;SDS011;56325;47.030;18.518;2022-07-23T21:03:13;6.62;;;6.07;;
69213;SDS011;56325;47.030;18.518;2022-07-23T21:06:17;10.38;;;6.20;;
69213;SDS011;56325;47.030;18.518;2022-07-23T21:09:20;7.25;;;6.55;;
69213;SDS011;56325;47.030;18.518;2022-07-23T21:12:23;8.13;;;6.70;;
69213;SDS011;56325;47.030;18.518;2022-07-23T21:15:27;7.82;;;6.03;;
69213;SDS011;56325;47.030;18.518;2022-07-23T21:18:31;15.98;;;7.03;;
69213;SDS011;56325;47.030;18.518;2022-07-23T21:21:34;7.37;;;6.87;;
69213;SDS011;56325;47.030;18.518;2022-07-23T21:24:37;10.38;;;7.00;;
69213;SDS011;56325;47.030;18.518;2022-07-23T21:27:41;26.58;;;6.72;;
69213;SDS011;56325;47.030;18.518;2022-07-23T21:30:45;10.23;;;6.85;;
69213;SDS011;56325;47.030;18.518;2022-07-23T21:33:48;7.85;;;6.18;;
69213;SDS011;56325;47.030;18.518;2022-07-23T21:36:51;7.55;;;6.85;;
69213;SDS011;56325;47.030;18.518;2022-07-23T21:39:54;8.50;;;6.37;;
69213;SDS011;56325;47.030;18.518;2022-07-23T21:42:58;10.00;;;5.87;;
69213;SDS011;56325;47.030;18.518;2022-07-23T21:46:00;6.60;;;6.00;;
69213;SDS011;56325;47.030;18.518;2022-07-23T21:49:04;6.85;;;6.28;;
69213;SDS011;56325;47.030;18.518;2022-07-23T21:52:08;7.10;;;5.82;;
69213;SDS011;56325;47.030;18.518;2022-07-23T21:55:11;5.97;;;5.37;;
69213;SDS011;56325;47.030;18.518;2022-07-23T21:58:14;6.07;;;5.60;;
69213;SDS011;56325;47.030;18.518;2022-07-23T22:01:18;6.47;;;5.97;;
69213;SDS011;56325;47.030;18.518;2022-07-23T22:04:22;8.32;;;5.97;;
69213;SDS011;56325;47.030;18.518;2022-07-23T22:07:25;6.72;;;5.35;;
69213;SDS011;56325;47.030;18.518;2022-07-23T22:10:28;5.93;;;5.47;;
69213;SDS011;56325;47.030;18.518;2022-07-23T22:13:31;5.30;;;5.00;;
69213;SDS011;56325;47.030;18.518;2022-07-23T22:16:34;8.55;;;5.97;;
69213;SDS011;56325;47.030;18.518;2022-07-23T22:19:38;11.05;;;5.82;;
69213;SDS011;56325;47.030;18.518;2022-07-23T22:22:42;7.87;;;5.40;;
69213;SDS011;56325;47.030;18.518;2022-07-23T22:25:51;6.28;;;5.72;;
69213;SDS011;56325;47.030;18.518;2022-07-23T22:28:55;6.55;;;5.93;;
69213;SDS011;56325;47.030;18.518;2022-07-23T22:31:58;11.10;;;5.82;;
69213;SDS011;56325;47.030;18.518;2022-07-23T22:35:02;7.28;;;5.95;;
69213;SDS011;56325;47.030;18.518;2022-07-23T22:38:06;5.70;;;5.32;;
69213;SDS011;56325;47.030;18.518;2022-07-23T22:41:10;6.00;;;5.50;;
69213;SDS011;56325;47.030;18.518;2022-07-23T22:44:16;5.47;;;5.07;;
69213;SDS011;56325;47.030;18.518;2022-07-23T22:47:20;6.78;;;6.22;;
69213;SDS011;56325;47.030;18.518;2022-07-23T22:50:23;6.18;;;5.62;;
69213;SDS011;56325;47.030;18.518;2022-07-23T22:53:27;6.62;;;6.12;;
69213;SDS011;56325;47.030;18.518;2022-07-23T22:56:29;6.72;;;5.90;;
69213;SDS011;56325;47.030;18.518;2022-07-23T22:59:32;14.90;;;5.32;;
69213;SDS011;56325;47.030;18.518;2022-07-23T23:02:36;6.18;;;5.57;;
69213;SDS011;56325;47.030;18.518;2022-07-23T23:05:39;6.25;;;5.75;;
69213;SDS011;56325;47.030;18.518;2022-07-23T23:08:43;5.62;;;5.20;;
69213;SDS011;56325;47.030;18.518;2022-07-23T23:11:46;8.30;;;5.70;;
69213;SDS011;56325;47.030;18.518;2022-07-23T23:14:49;5.87;;;5.32;;
69213;SDS011;56325;47.030;18.518;2022-07-23T23:17:52;5.53;;;5.20;;
69213;SDS011;56325;47.030;18.518;2022-07-23T23:20:56;5.85;;;5.40;;
69213;SDS011;56325;47.030;18.518;2022-07-23T23:23:59;6.43;;;5.95;;
69213;SDS011;56325;47.030;18.518;2022-07-23T23:27:02;6.90;;;6.20;;